Time;durP1;ratioP1;P1;durP2;ratioP2;P2;SDS_P1;SDS_P2;PMS_P1;PMS_P2;Temp;Humidity;BMP_temperature;BMP_pressure;BME280_temperature;BME280_humidity;BME280_pressure;Samples;Min_cycle;Max_cycle;Signal;HPM_P1;HPM_P2
2023/04/29 00:02:18;;;;;;;29.92;18.08;;;12.40;99.90;;;12.73;100.00;100210.72;5089128;28;20028;-77
2023/04/29 00:04:44;;;;;;;27.42;16.50;;;12.30;99.90;;;12.83;100.00;100210.09;5085381;28;20047;-77
2023/04/29 00:07:14;;;;;;;28.17;17.67;;;12.40;99.90;;;12.80;100.00;100220.47;5087018;28;20025;-78
2023/04/29 00:09:40;;;;;;;32.08;20.05;;;12.30;99.90;;;12.59;100.00;100221.91;5088330;28;20398;-77
2023/04/29 00:12:06;;;;;;;30.38;19.17;;;12.30;99.90;;;12.49;100.00;100213.50;5074050;28;20024;-77
2023/04/29 00:14:31;;;;;;;31.67;18.73;;;12.30;99.90;;;12.62;100.00;100215.16;5067539;28;20067;-77
2023/04/29 00:16:57;;;;;;;30.88;19.52;;;12.30;99.90;;;12.36;100.00;100214.59;5093588;28;20040;-77
2023/04/29 00:19:23;;;;;;;36.63;21.23;;;12.30;99.90;;;12.15;100.00;100219.59;5075999;28;20089;-76
2023/04/29 00:21:49;;;;;;;38.10;22.95;;;12.20;99.90;;;12.28;100.00;100217.69;5076905;28;20039;-77
2023/04/29 00:24:14;;;;;;;37.80;22.60;;;12.20;99.90;;;12.29;100.00;100192.00;5091734;28;20106;-78
2023/04/29 00:26:40;;;;;;;37.17;21.48;;;12.10;99.90;;;12.38;100.00;100201.50;5092494;28;20483;-77
2023/04/29 00:29:06;;;;;;;40.25;22.80;;;12.10;99.90;;;12.46;100.00;100230.41;5092728;28;20036;-77
2023/04/29 00:31:31;;;;;;;41.03;22.27;;;12.10;99.90;;;12.40;100.00;100220.41;5086728;28;20411;-77
2023/04/29 00:33:57;;;;;;;43.38;24.40;;;12.10;99.90;;;12.34;100.00;100224.94;5071044;28;20119;-76
2023/04/29 00:36:23;;;;;;;56.20;29.85;;;12.10;99.90;;;12.06;100.00;100231.94;5060531;28;20032;-78
2023/04/29 00:38:49;;;;;;;53.80;27.52;;;12.00;99.90;;;12.24;100.00;100231.00;5079949;28;20427;-78
2023/04/29 00:41:14;;;;;;;58.55;29.75;;;12.00;99.90;;;11.90;100.00;100231.53;5084746;28;20565;-77
2023/04/29 00:43:41;;;;;;;59.47;29.50;;;12.00;99.90;;;11.93;100.00;100233.81;5093003;28;20024;-77
2023/04/29 00:46:09;;;;;;;56.97;29.20;;;11.90;99.90;;;11.98;100.00;100233.09;5088697;28;20400;-75
2023/04/29 00:48:35;;;;;;;58.05;28.27;;;11.90;99.90;;;12.05;100.00;100238.50;5082907;28;20036;-77
2023/04/29 00:51:02;;;;;;;59.85;28.77;;;11.90;99.90;;;11.98;100.00;100243.22;5064667;28;20082;-78
2023/04/29 00:53:29;;;;;;;63.83;32.83;;;11.90;99.90;;;11.81;100.00;100241.16;5058619;28;20051;-77
2023/04/29 00:55:55;;;;;;;61.63;30.48;;;11.90;99.90;;;11.85;100.00;100214.19;5079740;28;20045;-77
2023/04/29 00:58:22;;;;;;;61.13;30.92;;;11.80;99.90;;;11.93;100.00;100238.44;5064109;28;20087;-77
2023/04/29 01:00:48;;;;;;;56.30;29.30;;;11.80;99.90;;;11.99;100.00;100239.41;5059969;28;20036;-76
2023/04/29 01:03:14;;;;;;;59.28;29.00;;;11.80;99.90;;;11.91;100.00;100241.41;5064028;28;20338;-78
2023/04/29 01:05:40;;;;;;;59.72;29.05;;;11.80;99.90;;;11.86;100.00;100251.41;5074201;28;20028;-76
2023/04/29 01:08:43;;;;;;;60.17;28.95;;;11.80;99.90;;;11.94;100.00;100245.59;5076389;28;20550;-77
2023/04/29 01:11:11;;;;;;;57.90;28.55;;;11.80;99.90;;;11.83;100.00;100255.41;5087088;28;20028;-77
2023/04/29 01:13:53;;;;;;;56.13;27.63;;;11.80;99.90;;;12.04;100.00;100253.22;5091741;28;20691;-78
2023/04/29 01:16:58;;;;;;;54.95;27.73;;;11.80;99.90;;;11.96;100.00;100248.91;5073231;28;20024;-77
2023/04/29 01:19:45;;;;;;;59.63;28.17;;;11.70;99.90;;;12.03;100.00;100243.38;5031141;28;20049;-77
2023/04/29 01:22:13;;;;;;;56.90;28.13;;;11.70;99.90;;;12.07;100.00;100260.97;5087588;28;20045;-78
2023/04/29 01:24:39;;;;;;;54.08;28.38;;;11.70;99.90;;;11.92;100.00;100251.28;5079996;28;20610;-78
2023/04/29 01:27:29;;;;;;;53.72;27.25;;;11.60;99.90;;;11.82;100.00;100253.75;5063491;28;20044;-77
2023/04/29 01:30:31;;;;;;;60.35;28.35;;;11.60;99.90;;;11.78;100.00;100255.31;5056751;28;20112;-77
2023/04/29 01:33:31;;;;;;;62.05;29.30;;;11.50;99.90;;;11.70;100.00;100247.44;5030663;28;20361;-77
2023/04/29 01:36:23;;;;;;;60.92;28.88;;;11.50;99.90;;;11.60;100.00;100261.69;5056302;28;20117;-78
2023/04/29 01:39:24;;;;;;;57.15;27.15;;;11.40;99.90;;;11.57;100.00;100270.34;5063278;28;20399;-78
2023/04/29 01:42:21;;;;;;;61.83;27.60;;;11.30;99.90;;;11.53;100.00;100256.31;5062647;28;20039;-75
2023/04/29 01:44:52;;;;;;;63.28;28.27;;;11.30;99.90;;;11.42;100.00;100257.94;5064414;28;20127;-78
2023/04/29 01:47:20;;;;;;;66.07;28.25;;;11.20;99.90;;;11.42;100.00;100265.31;5064035;28;20530;-77
2023/04/29 01:49:50;;;;;;;61.88;27.65;;;11.20;99.90;;;11.35;100.00;100266.22;5057917;28;20377;-78
2023/04/29 01:52:16;;;;;;;64.97;28.55;;;11.20;99.90;;;11.39;100.00;100276.66;5068018;28;20042;-77
2023/04/29 01:54:50;;;;;;;63.55;27.92;;;11.10;99.90;;;11.35;100.00;100263.47;5059364;28;20475;-74
2023/04/29 01:57:17;;;;;;;64.57;28.93;;;11.10;99.90;;;11.37;100.00;100277.72;5059149;28;20032;-78
2023/04/29 01:59:58;;;;;;;61.58;27.52;;;11.10;99.90;;;11.38;100.00;100270.38;5076044;28;20043;-78
2023/04/29 02:02:30;;;;;;;62.53;28.73;;;11.10;99.90;;;11.37;100.00;100282.38;5084042;28;20140;-77
2023/04/29 02:05:04;;;;;;;68.45;30.73;;;11.10;99.90;;;11.33;100.00;100271.06;5040641;28;20051;-78
2023/04/29 02:07:30;;;;;;;72.10;31.05;;;11.10;99.90;;;11.40;100.00;100281.91;5069846;28;20029;-77
2023/04/29 02:09:56;;;;;;;69.80;31.30;;;11.00;99.90;;;11.27;100.00;100291.13;5053544;28;20044;-77
2023/04/29 02:12:22;;;;;;;78.60;32.60;;;11.10;99.90;;;11.37;100.00;100294.13;5056190;28;20086;-77
2023/04/29 02:14:52;;;;;;;77.10;31.80;;;11.10;99.90;;;11.41;100.00;100286.31;5066491;28;20032;-78
2023/04/29 02:17:18;;;;;;;77.03;32.08;;;11.00;99.90;;;11.30;100.00;100301.56;5091437;28;20403;-77
2023/04/29 02:19:44;;;;;;;74.45;32.17;;;11.00;99.90;;;11.22;100.00;100299.16;5056548;28;20028;-77
2023/04/29 02:22:11;;;;;;;74.38;31.48;;;11.00;99.90;;;11.26;100.00;100294.91;5071391;28;20035;-77
2023/04/29 02:24:38;;;;;;;75.97;32.67;;;11.00;99.90;;;11.22;100.00;100294.53;5059965;28;20048;-77
2023/04/29 02:27:06;;;;;;;79.13;32.20;;;11.00;99.90;;;11.13;100.00;100301.38;5055044;28;20039;-77
2023/04/29 02:29:32;;;;;;;77.75;31.25;;;11.00;99.90;;;11.06;100.00;100284.25;5083378;28;20032;-77
2023/04/29 02:31:58;;;;;;;72.07;31.33;;;10.90;99.90;;;11.10;100.00;100307.28;5071646;28;20111;-77
2023/04/29 02:34:24;;;;;;;70.68;29.60;;;11.00;99.90;;;11.09;100.00;100305.63;5056040;28;20203;-76
2023/04/29 02:36:49;;;;;;;76.43;30.42;;;10.90;99.90;;;11.13;100.00;100303.25;5081889;28;20036;-77
2023/04/29 02:39:15;;;;;;;75.47;31.08;;;10.90;99.90;;;10.95;100.00;100304.94;5085313;28;20032;-77
2023/04/29 02:41:41;;;;;;;68.65;27.25;;;10.90;99.90;;;11.05;100.00;100309.88;5077365;28;20513;-76
2023/04/29 02:44:10;;;;;;;94.25;40.72;;;10.90;99.90;;;10.85;100.00;100313.66;5055398;28;20016;-76
2023/04/29 02:46:36;;;;;;;88.22;40.75;;;10.90;99.90;;;10.87;100.00;100325.19;5066351;28;20051;-77
2023/04/29 02:49:02;;;;;;;72.93;34.65;;;10.90;99.90;;;10.92;100.00;100333.53;5077162;28;20035;-76
2023/04/29 02:51:29;;;;;;;75.15;37.83;;;10.90;99.90;;;10.73;100.00;100329.94;5071490;28;20032;-73
2023/04/29 02:53:55;;;;;;;74.35;34.60;;;10.80;99.90;;;10.90;100.00;100337.56;5060443;28;20036;-74
2023/04/29 02:56:22;;;;;;;62.22;29.40;;;10.80;99.90;;;10.68;100.00;100337.97;5090471;28;20386;-74
2023/04/29 02:58:48;;;;;;;63.67;31.08;;;10.80;99.90;;;10.82;100.00;100337.84;5055658;28;20032;-74
2023/04/29 03:01:14;;;;;;;72.47;33.60;;;10.70;99.90;;;10.86;100.00;100348.06;5064502;28;20024;-74
2023/04/29 03:03:39;;;;;;;70.35;33.83;;;10.70;99.90;;;10.86;100.00;100344.50;5065712;28;20036;-76
2023/04/29 03:06:05;;;;;;;69.60;34.83;;;10.70;99.90;;;10.92;100.00;100357.25;5072158;28;20071;-74
2023/04/29 03:08:31;;;;;;;63.28;30.80;;;10.70;99.90;;;10.88;100.00;100366.97;5090247;28;20395;-75
2023/04/29 03:10:57;;;;;;;59.38;31.98;;;10.70;99.90;;;10.82;100.00;100363.25;5064944;28;20077;-75
2023/04/29 03:13:23;;;;;;;64.32;33.00;;;10.60;99.90;;;10.71;100.00;100367.53;5075877;28;20048;-74
2023/04/29 03:15:49;;;;;;;60.70;31.10;;;10.60;99.90;;;10.62;100.00;100360.72;5070908;28;20032;-74
2023/04/29 03:18:14;;;;;;;51.72;29.90;;;10.50;99.90;;;10.45;100.00;100347.63;5073566;28;20091;-75
2023/04/29 03:20:40;;;;;;;54.80;31.65;;;10.40;99.90;;;10.53;100.00;100364.75;5060444;28;20036;-75
2023/04/29 03:23:06;;;;;;;55.97;32.30;;;10.40;99.90;;;10.58;100.00;100378.56;5086961;28;20086;-75
2023/04/29 03:25:31;;;;;;;57.30;32.38;;;10.40;99.90;;;10.11;100.00;100355.22;5066822;28;20460;-75
2023/04/29 03:27:58;;;;;;;46.22;29.60;;;10.30;99.90;;;10.26;100.00;100367.69;5080607;28;20106;-75
2023/04/29 03:30:23;;;;;;;49.38;29.42;;;10.30;99.90;;;10.07;100.00;100363.00;5081472;28;20029;-75
2023/04/29 03:32:53;;;;;;;43.85;27.33;;;10.30;99.90;;;10.15;100.00;100361.91;5062920;28;20565;-74
2023/04/29 03:35:19;;;;;;;55.25;33.00;;;10.20;99.90;;;10.30;100.00;100371.63;5057849;28;20032;-75
2023/04/29 03:38:19;;;;;;;59.22;32.83;;;10.20;99.90;;;10.09;100.00;100370.97;5063860;28;20379;-76
2023/04/29 03:40:47;;;;;;;63.58;35.90;;;10.20;99.90;;;10.11;100.00;100366.13;5072212;28;20446;-75
2023/04/29 03:43:14;;;;;;;62.17;36.05;;;10.20;99.90;;;10.27;100.00;100381.09;5062114;28;20071;-74
2023/04/29 03:45:40;;;;;;;61.35;36.88;;;10.20;99.90;;;10.15;100.00;100372.81;5078269;28;20112;-74
2023/04/29 03:48:06;;;;;;;63.55;37.30;;;10.10;99.90;;;10.18;100.00;100383.25;5063940;28;20476;-75
2023/04/29 03:50:32;;;;;;;67.07;38.13;;;10.10;99.90;;;10.02;100.00;100381.06;5082188;28;20445;-75
2023/04/29 03:52:58;;;;;;;71.45;39.72;;;10.10;99.90;;;9.97;100.00;100375.44;5090388;28;20044;-75
2023/04/29 03:55:24;;;;;;;78.15;42.40;;;10.00;99.90;;;10.03;100.00;100389.03;5070727;28;20044;-75
2023/04/29 03:57:50;;;;;;;79.50;45.05;;;10.00;99.90;;;9.86;100.00;100375.09;5077438;28;20034;-75
2023/04/29 04:00:17;;;;;;;74.95;40.97;;;10.00;99.90;;;10.08;100.00;100393.81;5063007;28;20032;-75
2023/04/29 04:02:46;;;;;;;;;;;10.00;99.90;;;10.15;100.00;100400.06;5096868;28;20055;-75
2023/04/29 04:05:12;;;;;;;73.97;38.97;;;10.00;99.90;;;10.03;100.00;100408.09;5066944;28;19963;-75
2023/04/29 04:07:41;;;;;;;81.15;40.97;;;10.00;99.90;;;10.09;100.00;100406.41;5078376;28;20117;-75
2023/04/29 04:10:27;;;;;;;69.00;35.08;;;10.00;99.90;;;9.73;100.00;100396.94;5092339;28;20135;-74
2023/04/29 04:12:53;;;;;;;86.82;41.63;;;9.90;99.90;;;9.72;100.00;100434.25;5046575;28;20040;-75
2023/04/29 04:15:21;;;;;;;76.25;38.17;;;9.80;99.90;;;9.71;100.00;100431.75;5076949;28;20059;-74
2023/04/29 04:17:47;;;;;;;68.93;37.17;;;9.80;99.90;;;9.73;100.00;100444.09;5064713;28;20220;-74
2023/04/29 04:20:13;;;;;;;77.15;34.50;;;9.80;99.90;;;9.73;100.00;100441.38;5063726;28;20051;-75
2023/04/29 04:22:39;;;;;;;67.97;38.17;;;9.80;99.90;;;9.68;100.00;100448.53;5061521;28;20082;-75
2023/04/29 04:25:14;;;;;;;67.30;35.00;;;9.80;99.90;;;9.56;100.00;100440.19;5065536;28;20142;-75
2023/04/29 04:27:40;;;;;;;73.07;39.92;;;9.80;99.90;;;9.55;100.00;100454.84;5065514;28;20040;-75
2023/04/29 04:30:10;;;;;;;86.30;41.83;;;9.70;99.90;;;9.73;100.00;100451.44;5069287;28;20056;-75
2023/04/29 04:32:38;;;;;;;82.25;42.15;;;9.70;99.90;;;9.77;100.00;100458.13;5085304;28;20113;-74
2023/04/29 04:35:04;;;;;;;84.78;45.33;;;9.70;99.90;;;9.58;100.00;100449.81;5060636;28;20028;-75
2023/04/29 04:37:30;;;;;;;82.70;40.88;;;9.70;99.90;;;9.72;100.00;100468.81;5070343;28;20047;-75
2023/04/29 04:39:59;;;;;;;88.30;41.75;;;9.70;99.90;;;9.63;100.00;100463.63;5073409;28;20074;-77
2023/04/29 04:42:24;;;;;;;84.00;41.58;;;9.70;99.90;;;9.56;100.00;100483.75;5077745;28;20362;-75
2023/04/29 04:44:52;;;;;;;96.27;46.17;;;9.70;99.90;;;9.64;100.00;100469.91;5070264;28;20035;-75
2023/04/29 04:47:40;;;;;;;116.80;49.13;;;9.70;99.90;;;9.69;100.00;100483.72;5046958;28;20039;-76
2023/04/29 04:50:19;;;;;;;103.07;47.00;;;9.60;99.90;;;9.54;100.00;100477.69;5061897;28;20090;-75
2023/04/29 04:52:46;;;;;;;99.45;45.03;;;9.60;99.90;;;9.59;100.00;100489.63;5063315;28;20421;-75
2023/04/29 04:55:30;;;;;;;99.75;44.33;;;9.60;99.90;;;9.52;100.00;100491.50;5074400;28;20036;-77
2023/04/29 04:57:56;;;;;;;98.28;43.80;;;9.60;99.90;;;9.38;100.00;100481.72;5067184;28;20036;-76
2023/04/29 05:00:21;;;;;;;109.90;48.15;;;9.60;99.90;;;9.48;100.00;100490.28;5060987;28;20033;-75
2023/04/29 05:02:48;;;;;;;113.95;49.03;;;9.60;99.90;;;9.47;100.00;100497.63;5058099;28;20399;-76
2023/04/29 05:05:14;;;;;;;104.45;46.58;;;9.60;99.90;;;9.53;100.00;100490.47;5062741;28;20032;-75
2023/04/29 05:07:41;;;;;;;99.85;44.13;;;9.60;99.90;;;9.58;100.00;100523.38;5069281;28;20033;-75
2023/04/29 05:10:09;;;;;;;105.85;49.75;;;9.60;99.90;;;9.51;100.00;100525.25;5069890;28;22213;-75
2023/04/29 05:12:43;;;;;;;109.10;52.95;;;9.60;99.90;;;9.53;100.00;100520.41;5067068;28;20487;-75
2023/04/29 05:15:09;;;;;;;85.15;40.30;;;9.60;99.90;;;9.46;100.00;100516.88;5069037;28;20063;-75
2023/04/29 05:17:35;;;;;;;103.60;48.17;;;9.50;99.90;;;9.36;100.00;100525.47;5073000;28;20082;-76
2023/04/29 05:20:01;;;;;;;101.25;46.50;;;9.50;99.90;;;9.41;100.00;100530.31;5062586;28;20437;-76
2023/04/29 05:22:28;;;;;;;96.03;49.70;;;9.50;99.90;;;9.39;100.00;100540.56;5081141;28;20040;-76
2023/04/29 05:25:01;;;;;;;88.10;44.15;;;9.50;99.90;;;9.33;100.00;100529.47;5073798;28;20400;-76
2023/04/29 05:27:27;;;;;;;98.43;48.35;;;9.50;99.90;;;9.42;100.00;100545.59;5067192;28;20118;-76
2023/04/29 05:29:53;;;;;;;89.75;46.17;;;9.40;99.90;;;9.35;100.00;100549.16;5062845;28;20035;-75
2023/04/29 05:32:19;;;;;;;95.05;48.30;;;9.40;99.90;;;9.33;100.00;100544.97;5058527;28;20020;-76
2023/04/29 05:34:45;;;;;;;83.75;41.15;;;9.50;99.90;;;9.25;100.00;100559.63;5088379;28;20028;-75
2023/04/29 05:37:11;;;;;;;80.88;42.80;;;9.40;99.90;;;9.39;100.00;100559.63;5072432;28;20055;-76
2023/04/29 05:39:50;;;;;;;68.95;36.50;;;9.40;99.90;;;9.35;100.00;100562.78;5056969;28;20033;-75
2023/04/29 05:42:17;;;;;;;72.55;39.58;;;9.40;99.90;;;9.33;100.00;100573.03;5039663;28;20028;-76
2023/04/29 05:44:47;;;;;;;74.22;40.08;;;9.40;99.90;;;9.22;100.00;100565.50;5058806;28;20039;-76
2023/04/29 05:47:14;;;;;;;80.75;42.58;;;9.40;99.90;;;9.19;100.00;100584.97;5058375;28;20400;-75
2023/04/29 05:49:39;;;;;;;79.45;44.03;;;9.40;99.90;;;9.15;100.00;100575.56;5090560;28;20032;-75
2023/04/29 05:52:05;;;;;;;66.05;35.55;;;9.30;99.90;;;9.23;100.00;100575.31;5059911;28;20028;-76
2023/04/29 05:54:34;;;;;;;69.70;37.40;;;9.30;99.90;;;9.29;100.00;100587.28;5079169;28;20094;-76
2023/04/29 05:57:01;;;;;;;73.78;41.00;;;9.40;99.90;;;9.24;100.00;100590.63;5073995;28;20070;-75
2023/04/29 05:59:31;;;;;;;64.63;33.75;;;9.40;99.90;;;9.28;100.00;100588.31;5057375;28;20032;-77
2023/04/29 06:01:59;;;;;;;74.97;40.00;;;9.40;99.90;;;9.21;100.00;100593.75;5055883;28;20043;-76
2023/04/29 06:04:26;;;;;;;74.55;37.55;;;9.40;99.90;;;9.30;100.00;100588.94;5078627;28;20032;-76
2023/04/29 06:07:11;;;;;;;70.68;36.03;;;9.40;99.90;;;9.26;100.00;100596.69;5064953;28;20526;-75
2023/04/29 06:09:47;;;;;;;76.15;39.92;;;9.40;99.90;;;9.37;100.00;100600.66;5064615;28;20498;-74
2023/04/29 06:12:13;;;;;;;90.13;42.33;;;9.40;99.90;;;9.38;100.00;100610.50;5059387;28;20028;-75
2023/04/29 06:14:41;;;;;;;79.40;39.47;;;9.50;99.90;;;9.35;100.00;100619.94;5068295;28;20557;-75
2023/04/29 06:17:07;;;;;;;66.65;35.45;;;9.50;99.90;;;9.58;100.00;100618.69;5073692;28;20126;-76
2023/04/29 06:19:33;;;;;;;65.20;34.55;;;9.60;99.90;;;9.54;100.00;100631.03;5053163;28;20037;-76
2023/04/29 06:21:59;;;;;;;72.20;36.60;;;9.60;99.90;;;9.63;100.00;100637.09;5056438;28;20102;-76
2023/04/29 06:24:24;;;;;;;55.58;33.83;;;9.70;99.90;;;9.42;100.00;100640.88;5055653;28;20040;-76
2023/04/29 06:26:50;;;;;;;55.33;28.55;;;9.70;99.90;;;9.36;100.00;100631.66;5065593;28;20025;-75
2023/04/29 06:29:16;;;;;;;56.15;30.65;;;9.70;99.90;;;9.51;100.00;100647.78;5072845;28;20094;-76
2023/04/29 06:31:42;;;;;;;59.58;32.47;;;9.70;99.90;;;9.61;100.00;100634.59;5060360;28;20032;-75
2023/04/29 06:34:08;;;;;;;54.70;30.10;;;9.80;99.90;;;9.54;100.00;100662.88;5085014;28;20043;-75
2023/04/29 06:36:40;;;;;;;48.58;26.92;;;9.70;99.90;;;9.49;100.00;100650.75;5058137;28;20047;-75
2023/04/29 06:39:32;;;;;;;53.50;30.55;;;9.70;99.90;;;9.43;100.00;100661.63;5051540;28;20036;-77
2023/04/29 06:42:18;;;;;;;51.10;30.10;;;9.60;99.90;;;9.59;100.00;100671.25;5066888;28;20498;-76
2023/04/29 06:45:02;;;;;;;49.22;27.55;;;9.70;99.90;;;9.52;100.00;100679.41;5090689;28;20162;-76
2023/04/29 06:47:54;;;;;;;41.00;23.05;;;9.70;99.90;;;9.44;100.00;100682.38;5086612;28;20362;-75
2023/04/29 06:50:35;;;;;;;50.28;29.20;;;9.70;99.90;;;9.65;100.00;100673.13;5080836;28;20036;-76
2023/04/29 06:53:01;;;;;;;44.30;28.05;;;9.70;99.90;;;9.81;100.00;100693.66;5069166;28;20395;-76
2023/04/29 06:55:26;;;;;;;46.47;27.70;;;9.80;99.90;;;9.67;100.00;100678.38;5041161;28;20135;-77
2023/04/29 06:57:52;;;;;;;41.47;26.17;;;9.80;99.90;;;9.76;100.00;100704.38;5055108;28;20041;-76
2023/04/29 07:00:19;;;;;;;39.65;26.00;;;9.80;99.90;;;9.73;100.00;100689.28;5090354;28;20433;-76
2023/04/29 07:02:45;;;;;;;43.73;27.40;;;9.90;99.90;;;9.90;100.00;100707.91;5083142;28;20037;-75
2023/04/29 07:05:11;;;;;;;40.33;25.90;;;9.90;99.90;;;9.64;100.00;100724.06;5053696;28;20479;-76
2023/04/29 07:07:37;;;;;;;35.30;23.60;;;9.90;99.90;;;9.72;100.00;100725.75;5077035;28;20107;-74
2023/04/29 07:10:03;;;;;;;40.28;27.10;;;9.90;99.90;;;9.91;100.00;100721.34;5081438;28;20544;-76
2023/04/29 07:12:29;;;;;;;41.60;25.35;;;10.00;99.90;;;9.81;100.00;100668.31;5079167;28;20507;-75
2023/04/29 07:14:54;;;;;;;37.15;23.50;;;10.10;99.90;;;10.17;100.00;100727.81;5053881;28;20048;-75
2023/04/29 07:17:20;;;;;;;39.75;24.58;;;10.30;99.90;;;10.33;100.00;100733.84;5082247;28;20029;-74
2023/04/29 07:19:46;;;;;;;32.17;22.15;;;10.40;99.90;;;10.39;100.00;100735.75;5088011;28;20476;-78
2023/04/29 07:22:12;;;;;;;30.05;21.73;;;10.60;99.90;;;10.46;100.00;100722.09;5084437;28;20032;-75
2023/04/29 07:24:37;;;;;;;32.30;21.40;;;10.60;99.90;;;10.62;100.00;100738.00;5083862;28;20043;-76
2023/04/29 07:27:03;;;;;;;28.75;18.65;;;10.80;99.90;;;10.45;100.00;100743.09;5065447;28;20048;-76
2023/04/29 07:29:29;;;;;;;29.02;18.30;;;10.80;99.90;;;10.61;100.00;100747.25;5041898;28;20473;-76
2023/04/29 07:31:56;;;;;;;26.70;20.42;;;10.80;99.90;;;10.83;100.00;100749.69;5064269;28;20028;-76
2023/04/29 07:34:21;;;;;;;27.02;20.52;;;11.00;99.90;;;11.05;100.00;100763.06;5059396;28;20048;-77
2023/04/29 07:36:47;;;;;;;26.27;18.40;;;11.20;99.90;;;11.00;100.00;100754.66;5085832;28;20052;-75
2023/04/29 07:39:14;;;;;;;28.30;20.85;;;11.30;99.90;;;10.86;100.00;100745.69;5065784;28;20040;-75
2023/04/29 07:41:42;;;;;;;29.05;19.95;;;11.20;99.90;;;11.17;100.00;100769.50;5078253;28;20032;-75
2023/04/29 07:44:09;;;;;;;25.90;18.35;;;11.30;99.90;;;11.17;100.00;100772.22;5089263;28;20024;-76
2023/04/29 07:46:34;;;;;;;24.85;17.65;;;11.40;99.90;;;11.12;100.00;100763.00;5070768;28;20456;-75
2023/04/29 07:49:00;;;;;;;25.23;18.98;;;11.40;99.90;;;11.14;100.00;100775.38;5072427;28;20077;-75
2023/04/29 07:51:27;;;;;;;23.65;18.45;;;11.40;99.90;;;11.27;100.00;100776.34;5071355;28;20044;-76
2023/04/29 07:53:53;;;;;;;25.90;17.85;;;11.50;99.90;;;11.18;100.00;100775.81;5079865;28;20040;-76
2023/04/29 07:56:19;;;;;;;23.05;17.52;;;11.50;99.90;;;10.96;100.00;100773.38;5077961;28;20031;-75
2023/04/29 07:58:45;;;;;;;19.95;15.50;;;11.40;99.90;;;11.35;100.00;100773.41;5054047;28;20068;-76
2023/04/29 08:01:11;;;;;;;24.00;16.08;;;11.50;99.90;;;11.55;100.00;100770.53;5084082;28;20043;-75
2023/04/29 08:03:38;;;;;;;21.25;15.07;;;11.80;99.90;;;11.54;100.00;100771.59;5068913;28;20600;-75
2023/04/29 08:06:05;;;;;;;24.83;16.58;;;11.80;99.90;;;11.89;100.00;100781.22;5068541;28;20142;-77
2023/04/29 08:08:31;;;;;;;21.05;14.90;;;12.10;99.90;;;11.88;100.00;100785.84;5057532;28;20078;-76
2023/04/29 08:10:57;;;;;;;20.38;14.27;;;12.20;99.90;;;11.84;100.00;100783.81;5067604;28;20488;-75
2023/04/29 08:13:24;;;;;;;19.05;13.77;;;12.10;99.90;;;11.72;100.00;100783.69;5079381;28;20557;-76
2023/04/29 08:15:49;;;;;;;18.75;13.85;;;12.10;99.90;;;12.02;100.00;100788.53;5058379;28;20077;-76
2023/04/29 08:18:15;;;;;;;16.33;12.57;;;12.20;99.90;;;12.07;100.00;100780.47;5065716;28;20031;-78
2023/04/29 08:20:41;;;;;;;16.63;12.95;;;12.30;99.90;;;12.39;100.00;100794.06;5088366;28;20040;-76
2023/04/29 08:23:07;;;;;;;15.43;11.52;;;12.40;99.90;;;12.30;100.00;100781.75;5084106;28;20452;-77
2023/04/29 08:25:32;;;;;;;16.50;12.32;;;12.50;99.90;;;12.04;100.00;100781.75;5089154;28;20036;-77
2023/04/29 08:27:58;;;;;;;17.90;13.27;;;12.40;99.90;;;12.34;100.00;100791.19;5052618;28;20091;-77
2023/04/29 08:30:24;;;;;;;15.57;12.38;;;12.60;99.90;;;12.64;100.00;100788.56;5088094;28;20035;-75
2023/04/29 08:32:50;;;;;;;16.38;11.57;;;12.90;99.90;;;12.68;99.70;100794.41;5086042;28;20036;-76
2023/04/29 08:35:16;;;;;;;14.27;10.38;;;13.00;99.90;;;12.56;97.02;100777.91;5059577;28;20036;-77
2023/04/29 08:37:41;;;;;;;15.50;11.63;;;13.00;99.90;;;12.91;97.50;100803.84;5060564;28;20126;-75
2023/04/29 08:40:08;;;;;;;13.65;10.13;;;13.10;99.90;;;12.92;94.42;100797.28;5085145;28;20055;-75
2023/04/29 08:42:36;;;;;;;15.52;10.30;;;13.20;99.90;;;12.96;92.69;100793.03;5092926;28;20111;-76
2023/04/29 08:45:03;;;;;;;15.27;11.52;;;13.40;99.90;;;12.70;94.07;100792.28;5061549;28;20036;-77
2023/04/29 08:47:30;;;;;;;14.57;10.23;;;13.30;99.90;;;12.79;90.88;100804.59;5089075;28;20047;-75
2023/04/29 08:50:03;;;;;;;12.37;8.67;;;13.20;99.90;;;12.79;91.22;100804.59;5092766;28;20126;-76
2023/04/29 08:52:31;;;;;;;13.85;9.80;;;13.10;99.90;;;12.87;90.15;100791.66;5091220;28;20032;-76
2023/04/29 08:54:58;;;;;;;12.82;9.00;;;13.20;99.90;;;12.87;89.39;100808.09;5086113;28;20068;-75
2023/04/29 08:57:28;;;;;;;12.57;9.60;;;13.10;99.90;;;12.88;90.38;100818.84;5089350;28;20043;-75
2023/04/29 08:59:54;;;;;;;12.73;8.82;;;13.10;99.90;;;12.76;88.60;100805.06;5058312;28;20447;-76
2023/04/29 09:02:24;;;;;;;12.73;8.73;;;13.10;99.90;;;12.86;89.28;100795.47;5041688;28;20037;-76
2023/04/29 09:05:10;;;;;;;12.68;9.60;;;13.20;99.90;;;13.17;88.43;100813.66;5074672;28;20540;-76
2023/04/29 09:07:40;;;;;;;11.00;8.98;;;13.40;99.90;;;13.20;87.46;100815.06;5085599;28;20072;-77
2023/04/29 09:10:07;;;;;;;11.25;8.65;;;13.50;99.90;;;13.13;87.10;100811.59;5057164;28;20132;-78
2023/04/29 09:12:32;;;;;;;12.90;9.40;;;13.50;99.90;;;13.36;85.44;100819.06;5063420;28;20112;-76
2023/04/29 09:14:59;;;;;;;12.65;8.95;;;13.50;99.90;;;13.59;84.35;100806.56;5083309;28;20042;-77
2023/04/29 09:17:46;;;;;;;11.52;8.57;;;13.80;99.90;;;13.91;83.54;100820.00;5071734;28;20032;-76
2023/04/29 09:20:21;;;;;;;10.23;7.68;;;14.10;99.90;;;13.43;81.40;100821.75;5085672;28;20039;-75
2023/04/29 09:22:47;;;;;;;9.60;7.47;;;13.80;99.90;;;13.26;83.01;100822.38;5086672;28;20044;-77
2023/04/29 09:25:13;;;;;;;11.70;8.27;;;13.60;99.90;;;13.35;82.37;100829.22;5072762;28;20123;-76
2023/04/29 09:27:39;;;;;;;10.80;7.72;;;13.70;99.90;;;13.31;84.75;100832.63;5085591;28;20028;-77
2023/04/29 09:30:06;;;;;;;11.60;8.80;;;13.60;99.90;;;12.83;84.11;100837.00;5091830;28;20039;-76
2023/04/29 09:32:32;;;;;;;13.93;8.35;;;13.20;99.90;;;12.60;85.31;100841.22;5057972;28;20488;-76
2023/04/29 09:35:18;;;;;;;13.35;7.82;;;13.00;99.90;;;12.59;88.09;100848.59;5091754;28;20032;-76
2023/04/29 09:37:44;;;;;;;16.60;9.18;;;12.80;99.90;;;12.86;85.17;100839.28;5086659;28;20048;-76
2023/04/29 09:40:33;;;;;;;11.68;7.97;;;13.10;99.90;;;13.16;84.51;100849.47;5091393;28;20086;-77
2023/04/29 09:43:00;;;;;;;10.13;8.15;;;13.20;99.90;;;13.20;82.47;100842.47;5072564;28;20098;-76
2023/04/29 09:45:37;;;;;;;13.20;8.60;;;13.50;99.90;;;13.61;81.05;100854.63;5079476;28;20601;-76
2023/04/29 09:48:08;;;;;;;11.35;7.55;;;13.80;99.90;;;13.33;80.29;100847.78;5081790;28;20054;-77
2023/04/29 09:50:42;;;;;;;12.00;7.63;;;13.60;99.90;;;13.15;80.83;100845.06;5087416;28;20033;-76
2023/04/29 09:53:10;;;;;;;12.35;7.38;;;13.50;99.90;;;13.28;79.67;100835.84;5066047;28;20097;-76
2023/04/29 09:55:57;;;;;;;11.68;8.18;;;13.50;99.90;;;13.59;79.07;100854.03;5060660;28;20488;-75
2023/04/29 09:58:30;;;;;;;13.27;8.07;;;13.80;99.90;;;13.72;79.74;100866.69;5080148;28;20111;-75
2023/04/29 10:01:00;;;;;;;12.27;8.10;;;13.80;99.90;;;13.87;77.46;100857.19;5077673;28;20526;-76
2023/04/29 10:03:34;;;;;;;10.88;8.05;;;14.00;99.90;;;13.80;77.82;100855.41;5086890;28;20035;-76
2023/04/29 10:06:03;;;;;;;11.48;7.05;;;14.10;99.90;;;13.29;78.26;100867.66;5083358;28;20050;-75
2023/04/29 10:08:30;;;;;;;12.70;8.27;;;13.70;99.90;;;13.02;79.53;100860.59;5090681;28;20039;-76
2023/04/29 10:11:02;;;;;;;12.67;9.03;;;13.40;99.90;;;12.97;82.41;100870.56;5073358;28;20471;-77